Darstellungsparameter: Aktuell verwendete Einstellungen:
Skalierung der Graphiken ... ?
xyx+y,   Skalierungsfaktor:      Skalierung: Modus: x, Faktor: 1
Darstellungszeitraum ... ?
Vom - - bis: - -   Zeitraum: 20.01.2019 - 22.01.2019
Min/Max/Avg-Anzeige ... ?
Zeige MMA aktuell
Zeige MMA Monat
Zeige MMA alles
Zeige --A aktuell
Zeige --A Monat
Zeige --A alles
Keine MMA-Anzeige
MMA:
Average (ber die Originaldaten)
MMA-Basis: 20.01.2019 - 22.01.2019
Quicknavigation für Darstellung... ?
Tage:      1T, 2T, 3T, 5T -1T -2T -3T -5T +1T +2T +3T +5T
Wochen: 1W, 2W, 3W -1W -2W -3W +1W +2W +3W
Monate: 1M, 3M, 6M -1M -3M -6M +1M +3M +6M
Jahre:    1J, 3J, 5J, 10J -1J -3J -5J -10J +1J +3J +5J +10J
Nutze für die Darstellung ... ?
Originaldaten oder Mittelwerte auf ...
Stundenbasis Tagesbasis Wochenbasis
Monatsbasis Jahresbasis      Datenbasis: Original-Daten
Darstellen als:
Statistik (Auto) Statistik J:M      Darstellung:
Zur Graphik,    zurück zur Übersicht aller Sensoren.
 
Tabellarische Datenbersicht: ?
 
Sensor: Nr:Datum:Temp:Abs-Feuchte:Windchill:Wind:
Aussen-T/F 1 20-01-2019 00:00:00 -4.6 C 3.22 g/m*3 -4.6 C 0 km/h
2 20-01-2019 00:05:00 -4.6 C 3.22 g/m*3 -4.6 C 0 km/h
3 20-01-2019 00:10:00 -4.7 C 3.2 g/m*3 -4.7 C 0 km/h
4 20-01-2019 00:15:00 -4.7 C 3.2 g/m*3 -4.7 C 0 km/h
5 20-01-2019 00:20:00 -4.7 C 3.2 g/m*3 -4.7 C 0 km/h
6 20-01-2019 00:25:00 -4.8 C 3.18 g/m*3 -4.8 C 0 km/h
7 20-01-2019 00:30:00 -4.8 C 3.18 g/m*3 -4.8 C 0 km/h
8 20-01-2019 00:35:00 -4.7 C 3.24 g/m*3 -4.7 C 0 km/h
9 20-01-2019 00:40:00 -4.7 C 3.24 g/m*3 -4.7 C 0 km/h
10 20-01-2019 00:45:00 -4.8 C 3.21 g/m*3 -4.8 C 0 km/h
11 20-01-2019 00:50:00 -4.8 C 3.21 g/m*3 -4.8 C 0 km/h
12 20-01-2019 00:55:00 -4.9 C 3.16 g/m*3 -4.9 C 0 km/h
13 20-01-2019 01:00:00 -5.1 C 3.11 g/m*3 -5.1 C 0 km/h
14 20-01-2019 01:05:00 -5.1 C 3.11 g/m*3 -5.1 C 0 km/h
15 20-01-2019 01:10:00 -5.2 C 3.12 g/m*3 -5.2 C 0 km/h
16 20-01-2019 01:15:00 -5.2 C 3.12 g/m*3 -5.2 C 0 km/h
17 20-01-2019 01:20:00 -5.3 C 3.1 g/m*3 -5.3 C 0 km/h
18 20-01-2019 01:25:00 -5.3 C 3.1 g/m*3 -5.3 C 0 km/h
19 20-01-2019 01:30:00 -5.4 C 3.08 g/m*3 -5.4 C 0 km/h
20 20-01-2019 01:35:00 -5.4 C 3.08 g/m*3 -5.4 C 0 km/h
21 20-01-2019 01:40:00 -5.4 C 3.08 g/m*3 -5.4 C 0 km/h
22 20-01-2019 01:45:00 -5.3 C 3.1 g/m*3 -5.3 C 0 km/h
23 20-01-2019 01:50:00 -5.4 C 3.08 g/m*3 -5.4 C 0 km/h
24 20-01-2019 01:55:00 -5.4 C 3.08 g/m*3 -5.4 C 0 km/h
25 20-01-2019 02:00:00 -5.4 C 3.08 g/m*3 -5.4 C 0 km/h
Sensor: Nr:Datum:Temp:Abs-Feuchte:Windchill:Wind:
Aussen-T/F 26 20-01-2019 02:05:00 -5.5 C 3.05 g/m*3 -5.5 C 0 km/h
27 20-01-2019 02:10:00 -5.6 C 3.03 g/m*3 -5.6 C 0 km/h
28 20-01-2019 02:15:00 -5.7 C 3.01 g/m*3 -5.7 C 0 km/h
29 20-01-2019 02:20:00 -5.7 C 3.01 g/m*3 -5.7 C 0 km/h
30 20-01-2019 02:25:00 -5.7 C 3.01 g/m*3 -5.7 C 0 km/h
31 20-01-2019 02:30:00 -5.7 C 3.01 g/m*3 -5.7 C 0 km/h
32 20-01-2019 02:35:00 -5.6 C 3.03 g/m*3 -5.6 C 0 km/h
33 20-01-2019 02:40:00 -5.6 C 3.03 g/m*3 -5.6 C 0 km/h
34 20-01-2019 02:45:00 -5.7 C 3.01 g/m*3 -5.7 C 0 km/h
35 20-01-2019 02:50:00 -5.7 C 3.01 g/m*3 -5.7 C 0 km/h
36 20-01-2019 02:55:00 -5.7 C 3.01 g/m*3 -5.7 C 0 km/h
37 20-01-2019 03:00:00 -5.7 C 3.01 g/m*3 -5.7 C 0 km/h
38 20-01-2019 03:05:00 -5.7 C 3.01 g/m*3 -5.7 C 0 km/h
39 20-01-2019 03:10:00 -5.7 C 3.01 g/m*3 -5.7 C 0 km/h
40 20-01-2019 03:15:00 -5.7 C 3.01 g/m*3 -5.7 C 0 km/h
41 20-01-2019 03:20:00 -5.8 C 2.99 g/m*3 -5.8 C 0 km/h
42 20-01-2019 03:25:00 -5.8 C 2.99 g/m*3 -5.8 C 0 km/h
43 20-01-2019 03:30:00 -5.8 C 3.02 g/m*3 -5.8 C 0 km/h
44 20-01-2019 03:35:00 -5.8 C 3.02 g/m*3 -5.8 C 0 km/h
45 20-01-2019 03:40:00 -5.9 C 3 g/m*3 -5.9 C 0 km/h
46 20-01-2019 03:45:00 -5.9 C 2.97 g/m*3 -5.9 C 0 km/h
47 20-01-2019 03:50:00 -6 C 2.95 g/m*3 -6 C 0 km/h
48 20-01-2019 03:55:00 -6.1 C 2.92 g/m*3 -6.1 C 0 km/h
49 20-01-2019 04:00:00 -6.2 C 2.9 g/m*3 -6.2 C 0 km/h
50 20-01-2019 04:05:00 -6.2 C 2.9 g/m*3 -6.2 C 0 km/h
Sensor: Nr:Datum:Temp:Abs-Feuchte:Windchill:Wind:
Aussen-T/F 51 20-01-2019 04:10:00 -6.2 C 2.9 g/m*3 -6.2 C 0 km/h
52 20-01-2019 04:15:00 -6.2 C 2.9 g/m*3 -6.2 C 0 km/h
53 20-01-2019 04:20:00 -6.2 C 2.9 g/m*3 -6.2 C 0 km/h
54 20-01-2019 04:25:00 -6.2 C 2.9 g/m*3 -6.2 C 0 km/h
55 20-01-2019 04:30:00 -6.2 C 2.9 g/m*3 -6.2 C 0 km/h
56 20-01-2019 04:35:00 -6.2 C 2.9 g/m*3 -6.2 C 0 km/h
57 20-01-2019 04:40:00 -6.3 C 2.88 g/m*3 -6.3 C 0 km/h
58 20-01-2019 04:45:00 -6.3 C 2.88 g/m*3 -6.3 C 0 km/h
59 20-01-2019 04:50:00 -6.3 C 2.88 g/m*3 -6.3 C 0 km/h
60 20-01-2019 04:55:00 -6.4 C 2.86 g/m*3 -6.4 C 0 km/h
61 20-01-2019 05:00:00 -6.4 C 2.86 g/m*3 -6.4 C 0 km/h
62 20-01-2019 05:05:00 -6.6 C 2.82 g/m*3 -6.6 C 0 km/h
63 20-01-2019 05:10:00 -6.6 C 2.82 g/m*3 -6.6 C 0 km/h
64 20-01-2019 05:15:00 -6.6 C 2.82 g/m*3 -6.6 C 0 km/h
65 20-01-2019 05:20:00 -6.6 C 2.82 g/m*3 -6.6 C 0 km/h
66 20-01-2019 05:25:00 -6.6 C 2.82 g/m*3 -6.6 C 0 km/h
67 20-01-2019 05:30:00 -6.6 C 2.82 g/m*3 -6.6 C 0 km/h
68 20-01-2019 05:35:00 -6.7 C 2.8 g/m*3 -6.7 C 0 km/h
69 20-01-2019 05:40:00 -6.7 C 2.8 g/m*3 -6.7 C 0 km/h
70 20-01-2019 05:45:00 -6.7 C 2.83 g/m*3 -6.7 C 0 km/h
71 20-01-2019 05:50:00 -6.7 C 2.83 g/m*3 -6.7 C 0 km/h
72 20-01-2019 05:55:00 -6.7 C 2.83 g/m*3 -6.7 C 0 km/h
73 20-01-2019 06:00:00 -6.7 C 2.83 g/m*3 -6.7 C 0 km/h
74 20-01-2019 06:05:00 -6.7 C 2.8 g/m*3 -6.7 C 0 km/h
75 20-01-2019 06:10:00 -6.7 C 2.8 g/m*3 -6.7 C 0 km/h
Sensor: Nr:Datum:Temp:Abs-Feuchte:Windchill:Wind:
Aussen-T/F 76 20-01-2019 06:15:00 -6.7 C 2.8 g/m*3 -6.7 C 0 km/h
77 20-01-2019 06:20:00 -6.8 C 2.81 g/m*3 -6.8 C 0 km/h
78 20-01-2019 06:25:00 -6.8 C 2.78 g/m*3 -6.8 C 0 km/h
79 20-01-2019 06:30:00 -6.9 C 2.76 g/m*3 -6.9 C 0 km/h
80 20-01-2019 06:35:00 -6.9 C 2.76 g/m*3 -6.9 C 0 km/h
81 20-01-2019 06:40:00 -6.9 C 2.76 g/m*3 -6.9 C 0 km/h
82 20-01-2019 06:45:00 -6.9 C 2.79 g/m*3 -6.9 C 0 km/h
83 20-01-2019 06:50:00 -6.8 C 2.81 g/m*3 -6.8 C 0 km/h
84 20-01-2019 06:55:00 -6.8 C 2.81 g/m*3 -6.8 C 0 km/h
85 20-01-2019 07:00:00 -6.8 C 2.81 g/m*3 -6.8 C 0 km/h
86 20-01-2019 07:05:00 -6.9 C 2.76 g/m*3 -6.9 C 0 km/h
87 20-01-2019 07:10:00 -7 C 2.74 g/m*3 -7 C 0 km/h
88 20-01-2019 07:15:00 -7.1 C 2.72 g/m*3 -7.1 C 0 km/h
89 20-01-2019 07:20:00 -7.1 C 2.72 g/m*3 -7.1 C 0 km/h
90 20-01-2019 07:25:00 -7.1 C 2.72 g/m*3 -7.1 C 0 km/h
91 20-01-2019 07:30:00 -7.2 C 2.7 g/m*3 -7.2 C 0 km/h
92 20-01-2019 07:35:00 -7.2 C 2.7 g/m*3 -7.2 C 0 km/h
93 20-01-2019 07:40:00 -7.2 C 2.7 g/m*3 -7.2 C 0 km/h
94 20-01-2019 07:45:00 -7 C 2.77 g/m*3 -7 C 0 km/h
95 20-01-2019 07:50:00 -6.9 C 2.79 g/m*3 -6.9 C 0 km/h
96 20-01-2019 07:55:00 -7.1 C 2.72 g/m*3 -7.1 C 0 km/h
97 20-01-2019 08:00:00 -7.2 C 2.7 g/m*3 -7.2 C 0 km/h
98 20-01-2019 08:05:00 -7.2 C 2.7 g/m*3 -7.2 C 0 km/h
99 20-01-2019 08:10:00 -7.2 C 2.7 g/m*3 -7.2 C 0 km/h
100 20-01-2019 08:15:00 -7.3 C 2.68 g/m*3 -7.3 C 0 km/h
Sensor: Nr:Datum:Temp:Abs-Feuchte:Windchill:Wind:
Aussen-T/F 101 20-01-2019 08:20:00 -7.3 C 2.68 g/m*3 -7.3 C 0 km/h
102 20-01-2019 08:25:00 -7.4 C 2.66 g/m*3 -7.4 C 0 km/h
103 20-01-2019 08:30:00 -7.4 C 2.66 g/m*3 -7.4 C 0 km/h
104 20-01-2019 08:35:00 -7.4 C 2.66 g/m*3 -7.4 C 0 km/h
105 20-01-2019 08:40:00 -7.4 C 2.66 g/m*3 -7.4 C 0 km/h
106 20-01-2019 08:45:00 -7.4 C 2.66 g/m*3 -7.4 C 0 km/h
107 20-01-2019 08:50:00 -7.4 C 2.66 g/m*3 -7.4 C 0 km/h
108 20-01-2019 08:55:00 -7.4 C 2.66 g/m*3 -7.4 C 0 km/h
109 20-01-2019 09:00:00 -7.3 C 2.68 g/m*3 -7.3 C 0 km/h
110 20-01-2019 09:05:00 -7.3 C 2.71 g/m*3 -7.3 C 0 km/h
111 20-01-2019 09:10:00 -7.3 C 2.71 g/m*3 -7.3 C 0 km/h
112 20-01-2019 09:15:00 -7.2 C 2.73 g/m*3 -7.2 C 0 km/h
113 20-01-2019 09:20:00 -7.2 C 2.73 g/m*3 -7.2 C 0 km/h
114 20-01-2019 09:25:00 -7.2 C 2.73 g/m*3 -7.2 C 0 km/h
115 20-01-2019 09:30:00 -7.1 C 2.75 g/m*3 -7.1 C 0 km/h
116 20-01-2019 09:35:00 -6.9 C 2.79 g/m*3 -6.9 C 0 km/h
117 20-01-2019 09:40:00 -6.9 C 2.79 g/m*3 -6.9 C 0 km/h
118 20-01-2019 09:45:00 -6.8 C 2.81 g/m*3 -6.8 C 0 km/h
119 20-01-2019 09:50:00 -6.7 C 2.83 g/m*3 -6.7 C 0 km/h
120 20-01-2019 09:55:00 -6.6 C 2.85 g/m*3 -6.6 C 0 km/h
121 20-01-2019 10:00:00 -6.6 C 2.85 g/m*3 -6.6 C 0 km/h
122 20-01-2019 10:05:00 -6.5 C 2.87 g/m*3 -6.5 C 0 km/h
123 20-01-2019 10:10:00 -6.4 C 2.89 g/m*3 -6.4 C 0 km/h
124 20-01-2019 10:15:00 -6.4 C 2.89 g/m*3 -6.4 C 0 km/h
125 20-01-2019 10:20:00 -6.4 C 2.89 g/m*3 -6.4 C 0 km/h
Sensor: Nr:Datum:Temp:Abs-Feuchte:Windchill:Wind:
Aussen-T/F 126 20-01-2019 10:25:00 -6.3 C 2.91 g/m*3 -6.3 C 0 km/h
127 20-01-2019 10:30:00 -6.3 C 2.91 g/m*3 -6.3 C 0 km/h
128 20-01-2019 10:35:00 -6.3 C 2.91 g/m*3 -6.3 C 0 km/h
129 20-01-2019 10:40:00 -6.2 C 2.93 g/m*3 -6.2 C 0 km/h
130 20-01-2019 10:45:00 -6.2 C 2.93 g/m*3 -6.2 C 0 km/h
131 20-01-2019 10:50:00 -6 C 2.98 g/m*3 -6 C 0 km/h
132 20-01-2019 10:55:00 -5.9 C 3 g/m*3 -5.9 C 0 km/h
133 20-01-2019 11:00:00 -5.8 C 3.02 g/m*3 -5.8 C 0 km/h
134 20-01-2019 11:05:00 -5.8 C 3.02 g/m*3 -5.8 C 0 km/h
135 20-01-2019 11:10:00 -5.7 C 3.07 g/m*3 -5.7 C 0 km/h
136 20-01-2019 11:15:00 -5.6 C 3.1 g/m*3 -5.6 C 0 km/h
137 20-01-2019 11:20:00 -5.5 C 3.09 g/m*3 -5.5 C 0 km/h
138 20-01-2019 11:25:00 -5.4 C 3.14 g/m*3 -5.4 C 0 km/h
139 20-01-2019 11:30:00 -5.3 C 3.17 g/m*3 -5.3 C 0 km/h
140 20-01-2019 11:35:00 -5.3 C 3.13 g/m*3 -5.3 C 0 km/h
141 20-01-2019 11:40:00 -5.2 C 3.19 g/m*3 -5.2 C 1.6 km/h
142 20-01-2019 11:45:00 -5.1 C 3.21 g/m*3 -5.1 C 1.6 km/h
143 20-01-2019 11:50:00 -4.9 C 3.26 g/m*3 -4.9 C 0 km/h
144 20-01-2019 11:55:00 -4.8 C 3.28 g/m*3 -4.8 C 0 km/h
145 20-01-2019 12:00:00 -4.7 C 3.31 g/m*3 -4.7 C 0 km/h
146 20-01-2019 12:05:00 -4.6 C 3.33 g/m*3 -4.6 C 0 km/h
147 20-01-2019 12:10:00 -4.5 C 3.32 g/m*3 -4.5 C 0 km/h
148 20-01-2019 12:15:00 -4.4 C 3.34 g/m*3 -4.4 C 0 km/h
149 20-01-2019 12:20:00 -4.3 C 3.4 g/m*3 -4.3 C 0 km/h
150 20-01-2019 12:25:00 -4.3 C 3.37 g/m*3 -4.3 C 0 km/h
Sensor: Nr:Datum:Temp:Abs-Feuchte:Windchill:Wind:
Aussen-T/F 151 20-01-2019 12:30:00 -4.2 C 3.43 g/m*3 -4.2 C 1.6 km/h
152 20-01-2019 12:35:00 -4.1 C 3.45 g/m*3 -4.1 C 0 km/h
153 20-01-2019 12:40:00 -4 C 3.44 g/m*3 -4 C 0 km/h
154 20-01-2019 12:45:00 -3.9 C 3.46 g/m*3 -3.9 C 0 km/h
155 20-01-2019 12:50:00 -3.8 C 3.49 g/m*3 -3.8 C 0 km/h
156 20-01-2019 12:55:00 -3.8 C 3.49 g/m*3 -3.8 C 0 km/h
157 20-01-2019 13:00:00 -3.7 C 3.51 g/m*3 -3.7 C 1.6 km/h
158 20-01-2019 13:05:00 -3.6 C 3.54 g/m*3 -3.6 C 1.6 km/h
159 20-01-2019 13:10:00 -3.5 C 3.56 g/m*3 -3.5 C 1.6 km/h
160 20-01-2019 13:15:00 -3.4 C 3.59 g/m*3 -3.4 C 1.6 km/h
161 20-01-2019 13:20:00 -3.4 C 3.59 g/m*3 -3.4 C 1.6 km/h
162 20-01-2019 13:25:00 -3.3 C 3.61 g/m*3 -3.3 C 3.2 km/h
163 20-01-2019 13:30:00 -3.2 C 3.64 g/m*3 -3.2 C 0 km/h
164 20-01-2019 13:35:00 -3.1 C 3.67 g/m*3 -3.1 C 0 km/h
165 20-01-2019 13:40:00 -3.1 C 3.67 g/m*3 -3.1 C 0 km/h
166 20-01-2019 13:45:00 -3 C 3.69 g/m*3 -3 C 0 km/h
167 20-01-2019 13:50:00 -2.9 C 3.72 g/m*3 -2.9 C 0 km/h
168 20-01-2019 13:55:00 -2.9 C 3.72 g/m*3 -2.9 C 0 km/h
169 20-01-2019 14:00:00 -2.8 C 3.75 g/m*3 -2.8 C 0 km/h
170 20-01-2019 14:05:00 -2.8 C 3.75 g/m*3 -2.8 C 0 km/h
171 20-01-2019 14:10:00 -2.7 C 3.73 g/m*3 -2.7 C 0 km/h
172 20-01-2019 14:15:00 -2.7 C 3.77 g/m*3 -2.7 C 0 km/h
173 20-01-2019 14:20:00 -2.6 C 3.76 g/m*3 -2.6 C 0 km/h
174 20-01-2019 14:25:00 -2.6 C 3.76 g/m*3 -2.6 C 0 km/h
175 20-01-2019 14:30:00 -2.6 C 3.76 g/m*3 -2.6 C 0 km/h
Sensor: Nr:Datum:Temp:Abs-Feuchte:Windchill:Wind:
Aussen-T/F 176 20-01-2019 14:35:00 -2.5 C 3.78 g/m*3 -2.5 C 0 km/h
177 20-01-2019 14:40:00 -2.4 C 3.81 g/m*3 -2.4 C 0 km/h
178 20-01-2019 14:45:00 -2.4 C 3.81 g/m*3 -2.4 C 0 km/h
179 20-01-2019 14:50:00 -2.3 C 3.84 g/m*3 -2.3 C 0 km/h
180 20-01-2019 14:55:00 -2.3 C 3.84 g/m*3 -2.3 C 0 km/h
181 20-01-2019 15:00:00 -2.3 C 3.84 g/m*3 -2.3 C 0 km/h
182 20-01-2019 15:05:00 -2.2 C 3.87 g/m*3 -2.2 C 0 km/h
183 20-01-2019 15:10:00 -2.2 C 3.87 g/m*3 -2.2 C 0 km/h
184 20-01-2019 15:15:00 -2.2 C 3.87 g/m*3 -2.2 C 0 km/h
185 20-01-2019 15:20:00 -2.1 C 3.89 g/m*3 -2.1 C 0 km/h
186 20-01-2019 15:25:00 -2.1 C 3.89 g/m*3 -2.1 C 0 km/h
187 20-01-2019 15:30:00 -2 C 3.92 g/m*3 -2 C 0 km/h
188 20-01-2019 15:35:00 -1.9 C 3.95 g/m*3 -1.9 C 0 km/h
189 20-01-2019 15:40:00 -1.9 C 3.95 g/m*3 -1.9 C 0 km/h
190 20-01-2019 15:45:00 -1.9 C 3.91 g/m*3 -1.9 C 0 km/h
191 20-01-2019 15:50:00 -1.9 C 3.91 g/m*3 -1.9 C 0 km/h
192 20-01-2019 15:55:00 -1.8 C 3.93 g/m*3 -1.8 C 0 km/h
193 20-01-2019 16:00:00 -1.8 C 3.93 g/m*3 -1.8 C 0 km/h
194 20-01-2019 16:05:00 -1.8 C 3.93 g/m*3 -1.8 C 0 km/h
195 20-01-2019 16:10:00 -1.9 C 3.91 g/m*3 -1.9 C 0 km/h
196 20-01-2019 16:15:00 -1.9 C 3.91 g/m*3 -1.9 C 0 km/h
197 20-01-2019 16:20:00 -1.9 C 3.91 g/m*3 -1.9 C 0 km/h
198 20-01-2019 16:25:00 -1.9 C 3.91 g/m*3 -1.9 C 0 km/h
199 20-01-2019 16:30:00 -1.9 C 3.91 g/m*3 -1.9 C 0 km/h
200 20-01-2019 16:35:00 -2 C 3.88 g/m*3 -2 C 0 km/h
Sensor: Nr:Datum:Temp:Abs-Feuchte:Windchill:Wind:
Aussen-T/F 201 20-01-2019 16:40:00 -2.1 C 3.85 g/m*3 -2.1 C 0 km/h
202 20-01-2019 16:45:00 -2.1 C 3.85 g/m*3 -2.1 C 0 km/h
203 20-01-2019 16:50:00 -2.2 C 3.78 g/m*3 -2.2 C 0 km/h
204 20-01-2019 16:55:00 -2.2 C 3.78 g/m*3 -2.2 C 0 km/h
205 20-01-2019 17:00:00 -2.3 C 3.76 g/m*3 -2.3 C 0 km/h
206 20-01-2019 17:05:00 -2.3 C 3.76 g/m*3 -2.3 C 0 km/h
207 20-01-2019 17:10:00 -2.3 C 3.76 g/m*3 -2.3 C 0 km/h
208 20-01-2019 17:15:00 -2.3 C 3.76 g/m*3 -2.3 C 0 km/h
209 20-01-2019 17:20:00 -2.4 C 3.73 g/m*3 -2.4 C 0 km/h
210 20-01-2019 17:25:00 -2.4 C 3.69 g/m*3 -2.4 C 0 km/h
211 20-01-2019 17:30:00 -2.6 C 3.68 g/m*3 -2.6 C 0 km/h
212 20-01-2019 17:35:00 -2.6 C 3.68 g/m*3 -2.6 C 0 km/h
213 20-01-2019 17:40:00 -2.6 C 3.68 g/m*3 -2.6 C 0 km/h
214 20-01-2019 17:45:00 -2.6 C 3.68 g/m*3 -2.6 C 0 km/h
215 20-01-2019 17:50:00 -2.7 C 3.65 g/m*3 -2.7 C 0 km/h
216 20-01-2019 17:55:00 -2.8 C 3.59 g/m*3 -2.8 C 0 km/h
217 20-01-2019 18:00:00 -2.9 C 3.56 g/m*3 -2.9 C 0 km/h
218 20-01-2019 18:05:00 -3.1 C 3.51 g/m*3 -3.1 C 0 km/h
219 20-01-2019 18:10:00 -3.2 C 3.49 g/m*3 -3.2 C 0 km/h
220 20-01-2019 18:15:00 -3.3 C 3.46 g/m*3 -3.3 C 0 km/h
221 20-01-2019 18:20:00 -3.2 C 3.52 g/m*3 -3.2 C 0 km/h
222 20-01-2019 18:25:00 -3.3 C 3.5 g/m*3 -3.3 C 0 km/h
223 20-01-2019 18:30:00 -3.3 C 3.5 g/m*3 -3.3 C 0 km/h
224 20-01-2019 18:35:00 -3.4 C 3.47 g/m*3 -3.4 C 0 km/h
225 20-01-2019 18:40:00 -3.4 C 3.47 g/m*3 -3.4 C 0 km/h
Sensor: Nr:Datum:Temp:Abs-Feuchte:Windchill:Wind:
Aussen-T/F 226 20-01-2019 18:45:00 -3.5 C 3.45 g/m*3 -3.5 C 0 km/h
227 20-01-2019 18:50:00 -3.6 C 3.43 g/m*3 -3.6 C 0 km/h
228 20-01-2019 18:55:00 -3.6 C 3.43 g/m*3 -3.6 C 0 km/h
229 20-01-2019 19:00:00 -3.6 C 3.46 g/m*3 -3.6 C 0 km/h
230 20-01-2019 19:05:00 -3.6 C 3.43 g/m*3 -3.6 C 0 km/h
231 20-01-2019 19:10:00 -3.7 C 3.44 g/m*3 -3.7 C 0 km/h
232 20-01-2019 19:15:00 -3.7 C 3.44 g/m*3 -3.7 C 0 km/h
233 20-01-2019 19:20:00 -3.7 C 3.44 g/m*3 -3.7 C 0 km/h
234 20-01-2019 19:25:00 -3.7 C 3.44 g/m*3 -3.7 C 0 km/h
235 20-01-2019 19:30:00 -3.7 C 3.44 g/m*3 -3.7 C 0 km/h
236 20-01-2019 19:35:00 -3.8 C 3.38 g/m*3 -3.8 C 0 km/h
237 20-01-2019 19:40:00 -3.9 C 3.35 g/m*3 -3.9 C 0 km/h
238 20-01-2019 19:45:00 -3.9 C 3.39 g/m*3 -3.9 C 0 km/h
239 20-01-2019 19:50:00 -4 C 3.37 g/m*3 -4 C 0 km/h
240 20-01-2019 19:55:00 -4 C 3.37 g/m*3 -4 C 0 km/h
241 20-01-2019 20:00:00 -4 C 3.37 g/m*3 -4 C 0 km/h
242 20-01-2019 20:05:00 -4.1 C 3.34 g/m*3 -4.1 C 0 km/h
243 20-01-2019 20:10:00 -4.2 C 3.28 g/m*3 -4.2 C 0 km/h
244 20-01-2019 20:15:00 -4.2 C 3.32 g/m*3 -4.2 C 0 km/h
245 20-01-2019 20:20:00 -4.2 C 3.32 g/m*3 -4.2 C 0 km/h
246 20-01-2019 20:25:00 -4.3 C 3.29 g/m*3 -4.3 C 0 km/h
247 20-01-2019 20:30:00 -4.4 C 3.27 g/m*3 -4.4 C 0 km/h
248 20-01-2019 20:35:00 -4.6 C 3.19 g/m*3 -4.6 C 0 km/h
249 20-01-2019 20:40:00 -4.7 C 3.2 g/m*3 -4.7 C 0 km/h
250 20-01-2019 20:45:00 -4.8 C 3.14 g/m*3 -4.8 C 0 km/h
Sensor: Nr:Datum:Temp:Abs-Feuchte:Windchill:Wind:
Aussen-T/F 251 20-01-2019 20:50:00 -4.9 C 3.16 g/m*3 -4.9 C 0 km/h
252 20-01-2019 20:55:00 -4.9 C 3.16 g/m*3 -4.9 C 0 km/h
253 20-01-2019 21:00:00 -4.9 C 3.16 g/m*3 -4.9 C 0 km/h
254 20-01-2019 21:05:00 -4.9 C 3.16 g/m*3 -4.9 C 0 km/h
255 20-01-2019 21:10:00 -4.9 C 3.19 g/m*3 -4.9 C 0 km/h
256 20-01-2019 21:15:00 -4.9 C 3.16 g/m*3 -4.9 C 0 km/h
257 20-01-2019 21:20:00 -5.2 C 3.09 g/m*3 -5.2 C 0 km/h
258 20-01-2019 21:25:00 -5.3 C 3.07 g/m*3 -5.3 C 0 km/h
259 20-01-2019 21:30:00 -5.3 C 3.07 g/m*3 -5.3 C 0 km/h
260 20-01-2019 21:35:00 -5.3 C 3.07 g/m*3 -5.3 C 0 km/h
261 20-01-2019 21:40:00 -5.3 C 3.07 g/m*3 -5.3 C 0 km/h
262 20-01-2019 21:45:00 -5.3 C 3.07 g/m*3 -5.3 C 0 km/h
263 20-01-2019 21:50:00 -5.4 C 3.08 g/m*3 -5.4 C 0 km/h
264 20-01-2019 21:55:00 -5.4 C 3.08 g/m*3 -5.4 C 0 km/h
265 20-01-2019 22:00:00 -5.3 C 3.1 g/m*3 -5.3 C 0 km/h
266 20-01-2019 22:05:00 -5.4 C 3.08 g/m*3 -5.4 C 0 km/h
267 20-01-2019 22:10:00 -5.5 C 3.05 g/m*3 -5.5 C 0 km/h
268 20-01-2019 22:15:00 -5.7 C 2.98 g/m*3 -5.7 C 0 km/h
269 20-01-2019 22:20:00 -5.7 C 2.98 g/m*3 -5.7 C 0 km/h
270 20-01-2019 22:25:00 -5.7 C 3.01 g/m*3 -5.7 C 0 km/h
271 20-01-2019 22:30:00 -5.7 C 3.01 g/m*3 -5.7 C 0 km/h
272 20-01-2019 22:35:00 -5.7 C 3.01 g/m*3 -5.7 C 0 km/h
273 20-01-2019 22:40:00 -5.8 C 2.99 g/m*3 -5.8 C 0 km/h
274 20-01-2019 22:45:00 -5.8 C 2.99 g/m*3 -5.8 C 0 km/h
275 20-01-2019 22:50:00 -5.9 C 2.97 g/m*3 -5.9 C 0 km/h
Sensor: Nr:Datum:Temp:Abs-Feuchte:Windchill:Wind:
Aussen-T/F 276 20-01-2019 22:55:00 -5.9 C 2.97 g/m*3 -5.9 C 0 km/h
277 20-01-2019 23:00:00 -6 C 2.95 g/m*3 -6 C 0 km/h
278 20-01-2019 23:05:00 -6.1 C 2.92 g/m*3 -6.1 C 0 km/h
279 20-01-2019 23:10:00 -6.1 C 2.92 g/m*3 -6.1 C 0 km/h
280 20-01-2019 23:15:00 -6 C 2.95 g/m*3 -6 C 0 km/h
281 20-01-2019 23:20:00 -6.1 C 2.92 g/m*3 -6.1 C 0 km/h
282 20-01-2019 23:25:00 -6.1 C 2.92 g/m*3 -6.1 C 0 km/h
283 20-01-2019 23:30:00 -6.2 C 2.9 g/m*3 -6.2 C 0 km/h
284 20-01-2019 23:35:00 -6.2 C 2.9 g/m*3 -6.2 C 0 km/h
285 20-01-2019 23:40:00 -6.3 C 2.88 g/m*3 -6.3 C 0 km/h
286 20-01-2019 23:45:00 -6.3 C 2.88 g/m*3 -6.3 C 0 km/h
287 20-01-2019 23:50:00 -6.3 C 2.88 g/m*3 -6.3 C 0 km/h
288 20-01-2019 23:55:00 -6.3 C 2.88 g/m*3 -6.3 C 0 km/h
289 21-01-2019 00:00:00 -6.4 C 2.86 g/m*3 -6.4 C 0 km/h
290 21-01-2019 00:05:00 -6.5 C 2.84 g/m*3 -6.5 C 0 km/h
291 21-01-2019 00:10:00 -6.5 C 2.84 g/m*3 -6.5 C 0 km/h
292 21-01-2019 00:15:00 -6.4 C 2.86 g/m*3 -6.4 C 0 km/h
293 21-01-2019 00:20:00 -6.4 C 2.89 g/m*3 -6.4 C 0 km/h
294 21-01-2019 00:25:00 -6.5 C 2.84 g/m*3 -6.5 C 0 km/h
295 21-01-2019 00:30:00 -6.6 C 2.82 g/m*3 -6.6 C 0 km/h
296 21-01-2019 00:35:00 -6.6 C 2.82 g/m*3 -6.6 C 0 km/h
297 21-01-2019 00:40:00 -6.4 C 2.89 g/m*3 -6.4 C 0 km/h
298 21-01-2019 00:45:00 -6.3 C 2.91 g/m*3 -6.3 C 0 km/h
299 21-01-2019 00:50:00 -6.4 C 2.89 g/m*3 -6.4 C 0 km/h
300 21-01-2019 00:55:00 -6.5 C 2.84 g/m*3 -6.5 C 0 km/h
Sensor: Nr:Datum:Temp:Abs-Feuchte:Windchill:Wind:
Aussen-T/F 301 21-01-2019 01:00:00 -6.5 C 2.84 g/m*3 -6.5 C 0 km/h
302 21-01-2019 01:05:00 -6.6 C 2.82 g/m*3 -6.6 C 0 km/h
303 21-01-2019 01:10:00 -6.6 C 2.82 g/m*3 -6.6 C 0 km/h
304 21-01-2019 01:15:00 -6.6 C 2.85 g/m*3 -6.6 C 0 km/h
305 21-01-2019 01:20:00 -6.6 C 2.85 g/m*3 -6.6 C 0 km/h
306 21-01-2019 01:25:00 -6.6 C 2.85 g/m*3 -6.6 C 0 km/h
307 21-01-2019 01:30:00 -6.4 C 2.89 g/m*3 -6.4 C 0 km/h
308 21-01-2019 01:35:00 -6.5 C 2.87 g/m*3 -6.5 C 0 km/h
309 21-01-2019 01:40:00 -6.6 C 2.85 g/m*3 -6.6 C 0 km/h
310 21-01-2019 01:45:00 -6.6 C 2.85 g/m*3 -6.6 C 0 km/h
311 21-01-2019 01:50:00 -6.6 C 2.85 g/m*3 -6.6 C 0 km/h
312 21-01-2019 01:55:00 -6.6 C 2.85 g/m*3 -6.6 C 0 km/h
313 21-01-2019 02:00:00 -6.7 C 2.8 g/m*3 -6.7 C 0 km/h
314 21-01-2019 02:05:00 -6.7 C 2.8 g/m*3 -6.7 C 0 km/h
315 21-01-2019 02:10:00 -6.7 C 2.83 g/m*3 -6.7 C 0 km/h
316 21-01-2019 02:15:00 -6.8 C 2.81 g/m*3 -6.8 C 0 km/h
317 21-01-2019 02:20:00 -6.8 C 2.81 g/m*3 -6.8 C 0 km/h
318 21-01-2019 02:25:00 -6.8 C 2.81 g/m*3 -6.8 C 0 km/h
319 21-01-2019 02:30:00 -6.9 C 2.76 g/m*3 -6.9 C 0 km/h
320 21-01-2019 02:35:00 -7 C 2.77 g/m*3 -7 C 0 km/h
321 21-01-2019 02:40:00 -7 C 2.74 g/m*3 -7 C 0 km/h
322 21-01-2019 02:45:00 -7.1 C 2.72 g/m*3 -7.1 C 0 km/h
323 21-01-2019 02:50:00 -7.2 C 2.7 g/m*3 -7.2 C 0 km/h
324 21-01-2019 02:55:00 -7.2 C 2.7 g/m*3 -7.2 C 0 km/h
325 21-01-2019 03:00:00 -7.2 C 2.73 g/m*3 -7.2 C 0 km/h
Sensor: Nr:Datum:Temp:Abs-Feuchte:Windchill:Wind:
Aussen-T/F 326 21-01-2019 03:05:00 -7.2 C 2.73 g/m*3 -7.2 C 0 km/h
327 21-01-2019 03:10:00 -7.3 C 2.68 g/m*3 -7.3 C 0 km/h
328 21-01-2019 03:15:00 -7.3 C 2.68 g/m*3 -7.3 C 0 km/h
329 21-01-2019 03:20:00 -7.4 C 2.66 g/m*3 -7.4 C 0 km/h
330 21-01-2019 03:25:00 -7.5 C 2.64 g/m*3 -7.5 C 0 km/h
331 21-01-2019 03:30:00 -7.4 C 2.66 g/m*3 -7.4 C 0 km/h
332 21-01-2019 03:35:00 -7.4 C 2.69 g/m*3 -7.4 C 0 km/h
333 21-01-2019 03:40:00 -7.3 C 2.71 g/m*3 -7.3 C 0 km/h
334 21-01-2019 03:45:00 -7.4 C 2.69 g/m*3 -7.4 C 0 km/h
335 21-01-2019 03:50:00 -7.4 C 2.69 g/m*3 -7.4 C 0 km/h
336 21-01-2019 03:55:00 -7.4 C 2.69 g/m*3 -7.4 C 0 km/h
337 21-01-2019 04:00:00 -7.4 C 2.69 g/m*3 -7.4 C 0 km/h
338 21-01-2019 04:05:00 -7.6 C 2.65 g/m*3 -7.6 C 0 km/h
339 21-01-2019 04:10:00 -7.6 C 2.65 g/m*3 -7.6 C 0 km/h
340 21-01-2019 04:15:00 -7.6 C 2.65 g/m*3 -7.6 C 0 km/h
341 21-01-2019 04:20:00 -7.6 C 2.65 g/m*3 -7.6 C 0 km/h
342 21-01-2019 04:25:00 -7.6 C 2.65 g/m*3 -7.6 C 0 km/h
343 21-01-2019 04:30:00 -7.6 C 2.65 g/m*3 -7.6 C 0 km/h
344 21-01-2019 04:35:00 -7.6 C 2.65 g/m*3 -7.6 C 0 km/h
345 21-01-2019 04:40:00 -7.7 C 2.6 g/m*3 -7.7 C 0 km/h
346 21-01-2019 04:45:00 -7.8 C 2.58 g/m*3 -7.8 C 0 km/h
347 21-01-2019 04:50:00 -7.8 C 2.58 g/m*3 -7.8 C 0 km/h
348 21-01-2019 04:55:00 -7.8 C 2.58 g/m*3 -7.8 C 0 km/h
349 21-01-2019 05:00:00 -7.8 C 2.61 g/m*3 -7.8 C 0 km/h
350 21-01-2019 05:05:00 -7.7 C 2.63 g/m*3 -7.7 C 0 km/h
Sensor: Nr:Datum:Temp:Abs-Feuchte:Windchill:Wind:
Aussen-T/F 351 21-01-2019 05:10:00 -7.7 C 2.63 g/m*3 -7.7 C 0 km/h
352 21-01-2019 05:15:00 -7.8 C 2.58 g/m*3 -7.8 C 0 km/h
353 21-01-2019 05:20:00 -7.8 C 2.58 g/m*3 -7.8 C 0 km/h
354 21-01-2019 05:25:00 -7.8 C 2.58 g/m*3 -7.8 C 0 km/h
355 21-01-2019 05:30:00 -7.9 C 2.56 g/m*3 -7.9 C 0 km/h
356 21-01-2019 05:35:00 -8 C 2.54 g/m*3 -8 C 0 km/h
357 21-01-2019 05:40:00 -8 C 2.54 g/m*3 -8 C 0 km/h
358 21-01-2019 05:45:00 -8.1 C 2.52 g/m*3 -8.1 C 0 km/h
359 21-01-2019 05:50:00 -8 C 2.54 g/m*3 -8 C 0 km/h
360 21-01-2019 05:55:00 -8.1 C 2.52 g/m*3 -8.1 C 0 km/h
361 21-01-2019 06:00:00 -8.1 C 2.52 g/m*3 -8.1 C 0 km/h
362 21-01-2019 06:05:00 -8.1 C 2.52 g/m*3 -8.1 C 0 km/h
363 21-01-2019 06:10:00 -8.1 C 2.52 g/m*3 -8.1 C 0 km/h
364 21-01-2019 06:15:00 -8.1 C 2.52 g/m*3 -8.1 C 0 km/h
365 21-01-2019 06:20:00 -8.1 C 2.55 g/m*3 -8.1 C 0 km/h
366 21-01-2019 06:25:00 -8.1 C 2.52 g/m*3 -8.1 C 0 km/h
367 21-01-2019 06:30:00 -8 C 2.54 g/m*3 -8 C 0 km/h
368 21-01-2019 06:35:00 -8 C 2.54 g/m*3 -8 C 0 km/h
369 21-01-2019 06:40:00 -8.1 C 2.52 g/m*3 -8.1 C 0 km/h
370 21-01-2019 06:45:00 -8.1 C 2.52 g/m*3 -8.1 C 0 km/h
371 21-01-2019 06:50:00 -8.1 C 2.52 g/m*3 -8.1 C 0 km/h
372 21-01-2019 06:55:00 -8.2 C 2.51 g/m*3 -8.2 C 0 km/h
373 21-01-2019 07:00:00 -8.2 C 2.51 g/m*3 -8.2 C 0 km/h
374 21-01-2019 07:05:00 -8.3 C 2.49 g/m*3 -8.3 C 0 km/h
375 21-01-2019 07:10:00 -8.3 C 2.49 g/m*3 -8.3 C 0 km/h
Sensor: Nr:Datum:Temp:Abs-Feuchte:Windchill:Wind:
Aussen-T/F 376 21-01-2019 07:15:00 -8.3 C 2.49 g/m*3 -8.3 C 0 km/h
377 21-01-2019 07:20:00 -8.3 C 2.49 g/m*3 -8.3 C 0 km/h
378 21-01-2019 07:25:00 -8.3 C 2.49 g/m*3 -8.3 C 0 km/h
379 21-01-2019 07:30:00 -8.3 C 2.49 g/m*3 -8.3 C 0 km/h
380 21-01-2019 07:35:00 -8.4 C 2.47 g/m*3 -8.4 C 0 km/h
381 21-01-2019 07:40:00 -8.4 C 2.47 g/m*3 -8.4 C 0 km/h
382 21-01-2019 07:45:00 -8.5 C 2.45 g/m*3 -8.5 C 0 km/h
383 21-01-2019 07:50:00 -8.5 C 2.45 g/m*3 -8.5 C 0 km/h
384 21-01-2019 07:55:00 -8.5 C 2.45 g/m*3 -8.5 C 0 km/h
385 21-01-2019 08:00:00 -8.6 C 2.43 g/m*3 -8.6 C 0 km/h
386 21-01-2019 08:05:00 -8.5 C 2.45 g/m*3 -8.5 C 0 km/h
387 21-01-2019 08:10:00 -8.5 C 2.45 g/m*3 -8.5 C 0 km/h
388 21-01-2019 08:15:00 -8.4 C 2.47 g/m*3 -8.4 C 0 km/h
389 21-01-2019 08:20:00 -8.4 C 2.47 g/m*3 -8.4 C 0 km/h
390 21-01-2019 08:25:00 -8.5 C 2.45 g/m*3 -8.5 C 0 km/h
391 21-01-2019 08:30:00 -8.6 C 2.43 g/m*3 -8.6 C 0 km/h
392 21-01-2019 08:35:00 -8.6 C 2.43 g/m*3 -8.6 C 0 km/h
393 21-01-2019 08:40:00 -8.6 C 2.43 g/m*3 -8.6 C 0 km/h
394 21-01-2019 08:45:00 -8.7 C 2.41 g/m*3 -8.7 C 0 km/h
395 21-01-2019 08:50:00 -8.6 C 2.43 g/m*3 -8.6 C 0 km/h
396 21-01-2019 08:55:00 -8.6 C 2.43 g/m*3 -8.6 C 0 km/h
397 21-01-2019 09:00:00 -8.6 C 2.43 g/m*3 -8.6 C 0 km/h
398 21-01-2019 09:05:00 -8.5 C 2.45 g/m*3 -8.5 C 0 km/h
399 21-01-2019 09:10:00 -8.4 C 2.47 g/m*3 -8.4 C 0 km/h
400 21-01-2019 09:15:00 -8.4 C 2.47 g/m*3 -8.4 C 0 km/h
Sensor: Nr:Datum:Temp:Abs-Feuchte:Windchill:Wind:
Aussen-T/F 401 21-01-2019 09:20:00 -8.3 C 2.49 g/m*3 -8.3 C 0 km/h
402 21-01-2019 09:25:00 -8.3 C 2.49 g/m*3 -8.3 C 0 km/h
403 21-01-2019 09:30:00 -8.2 C 2.51 g/m*3 -8.2 C 0 km/h
404 21-01-2019 09:35:00 -8.2 C 2.51 g/m*3 -8.2 C 0 km/h
405 21-01-2019 09:40:00 -8.1 C 2.55 g/m*3 -8.1 C 0 km/h
406 21-01-2019 09:45:00 -8 C 2.57 g/m*3 -8 C 0 km/h
407 21-01-2019 09:50:00 -7.9 C 2.59 g/m*3 -7.9 C 0 km/h
408 21-01-2019 09:55:00 -7.8 C 2.61 g/m*3 -7.8 C 0 km/h
409 21-01-2019 10:00:00 -7.8 C 2.61 g/m*3 -7.8 C 0 km/h
410 21-01-2019 10:05:00 -7.8 C 2.61 g/m*3 -7.8 C 0 km/h
411 21-01-2019 10:10:00 -7.7 C 2.63 g/m*3 -7.7 C 0 km/h
412 21-01-2019 10:15:00 -7.7 C 2.63 g/m*3 -7.7 C 0 km/h
413 21-01-2019 10:20:00 -7.7 C 2.63 g/m*3 -7.7 C 0 km/h
414 21-01-2019 10:25:00 -7.6 C 2.65 g/m*3 -7.6 C 0 km/h
415 21-01-2019 10:30:00 -7.6 C 2.65 g/m*3 -7.6 C 0 km/h
416 21-01-2019 10:35:00 -7.6 C 2.65 g/m*3 -7.6 C 0 km/h
417 21-01-2019 10:40:00 -7.4 C 2.69 g/m*3 -7.4 C 0 km/h
418 21-01-2019 10:45:00 -7.3 C 2.71 g/m*3 -7.3 C 0 km/h
419 21-01-2019 10:50:00 -7.2 C 2.73 g/m*3 -7.2 C 0 km/h
420 21-01-2019 10:55:00 -7 C 2.77 g/m*3 -7 C 0 km/h
421 21-01-2019 11:00:00 -6.7 C 2.86 g/m*3 -6.7 C 0 km/h
422 21-01-2019 11:05:00 -6.5 C 2.9 g/m*3 -6.5 C 0 km/h
423 21-01-2019 11:10:00 -6.2 C 2.97 g/m*3 -6.2 C 0 km/h
424 21-01-2019 11:15:00 -6 C 3.01 g/m*3 -6 C 0 km/h
425 21-01-2019 11:20:00 -5.8 C 3.05 g/m*3 -5.8 C 0 km/h
Sensor: Nr:Datum:Temp:Abs-Feuchte:Windchill:Wind:
Aussen-T/F 426 21-01-2019 11:25:00 -5.7 C 3.07 g/m*3 -5.7 C 1.6 km/h
427 21-01-2019 11:30:00 -5.5 C 3.12 g/m*3 -5.5 C 1.6 km/h
428 21-01-2019 11:35:00 -5.3 C 3.17 g/m*3 -5.3 C 3.2 km/h
429 21-01-2019 11:40:00 -5.3 C 3.17 g/m*3 -5.3 C 1.6 km/h
430 21-01-2019 11:45:00 -5.2 C 3.19 g/m*3 -5.2 C 3.2 km/h
431 21-01-2019 11:50:00 -5.2 C 3.19 g/m*3 -5.2 C 4.8 km/h
432 21-01-2019 11:55:00 -5.1 C 3.21 g/m*3 -5.1 C 4.8 km/h
433 21-01-2019 12:00:00 -5 C 3.23 g/m*3 -5 C 3.2 km/h
434 21-01-2019 12:05:00 -5 C 3.23 g/m*3 -5 C 4.8 km/h
435 21-01-2019 12:10:00 -4.9 C 3.26 g/m*3 -4.9 C 1.6 km/h
436 21-01-2019 12:15:00 -4.9 C 3.26 g/m*3 -4.9 C 3.2 km/h
437 21-01-2019 12:20:00 -4.9 C 3.26 g/m*3 -4.9 C 0 km/h
438 21-01-2019 12:25:00 -4.9 C 3.26 g/m*3 -4.9 C 0 km/h
439 21-01-2019 12:30:00 -4.8 C 3.28 g/m*3 -4.8 C 0 km/h
440 21-01-2019 12:35:00 -4.8 C 3.28 g/m*3 -4.8 C 0 km/h
441 21-01-2019 12:40:00 -4.8 C 3.28 g/m*3 -4.8 C 0 km/h
442 21-01-2019 12:45:00 -4.8 C 3.28 g/m*3 -4.8 C 0 km/h
443 21-01-2019 12:50:00 -4.8 C 3.25 g/m*3 -4.8 C 0 km/h
444 21-01-2019 12:55:00 -4.8 C 3.25 g/m*3 -4.8 C 0 km/h
445 21-01-2019 13:00:00 -4.8 C 3.25 g/m*3 -4.8 C 0 km/h
446 21-01-2019 13:05:00 -4.8 C 3.25 g/m*3 -4.8 C 1.6 km/h
447 21-01-2019 13:10:00 -4.7 C 3.31 g/m*3 -4.7 C 0 km/h
448 21-01-2019 13:15:00 -4.7 C 3.31 g/m*3 -4.7 C 0 km/h
449 21-01-2019 13:20:00 -4.6 C 3.33 g/m*3 -4.6 C 0 km/h
450 21-01-2019 13:25:00 -4.5 C 3.35 g/m*3 -4.5 C 0 km/h
Sensor: Nr:Datum:Temp:Abs-Feuchte:Windchill:Wind:
Aussen-T/F 451 21-01-2019 13:30:00 -4.4 C 3.38 g/m*3 -4.4 C 0 km/h
452 21-01-2019 13:35:00 -4.4 C 3.38 g/m*3 -4.4 C 0 km/h
453 21-01-2019 13:40:00 -4.3 C 3.4 g/m*3 -4.3 C 0 km/h
454 21-01-2019 13:45:00 -4.3 C 3.4 g/m*3 -4.3 C 0 km/h
455 21-01-2019 13:50:00 -4.2 C 3.43 g/m*3 -4.2 C 1.6 km/h
456 21-01-2019 13:55:00 -4.2 C 3.43 g/m*3 -4.2 C 0 km/h
457 21-01-2019 14:00:00 -4.2 C 3.43 g/m*3 -4.2 C 0 km/h
458 21-01-2019 14:05:00 -4.1 C 3.45 g/m*3 -4.1 C 3.2 km/h
459 21-01-2019 14:10:00 -4 C 3.48 g/m*3 -4 C 3.2 km/h
460 21-01-2019 14:15:00 -3.9 C 3.5 g/m*3 -3.9 C 1.6 km/h
461 21-01-2019 14:20:00 -3.8 C 3.53 g/m*3 -3.8 C 0 km/h
462 21-01-2019 14:25:00 -3.8 C 3.53 g/m*3 -3.8 C 0 km/h
463 21-01-2019 14:30:00 -3.7 C 3.55 g/m*3 -3.7 C 0 km/h
464 21-01-2019 14:35:00 -3.7 C 3.55 g/m*3 -3.7 C 0 km/h
465 21-01-2019 14:40:00 -3.6 C 3.58 g/m*3 -3.6 C 0 km/h
466 21-01-2019 14:45:00 -3.6 C 3.58 g/m*3 -3.6 C 0 km/h
467 21-01-2019 14:50:00 -3.5 C 3.6 g/m*3 -3.5 C 0 km/h
468 21-01-2019 14:55:00 -3.4 C 3.63 g/m*3 -3.4 C 0 km/h
469 21-01-2019 15:00:00 -3.4 C 3.63 g/m*3 -3.4 C 0 km/h
470 21-01-2019 15:05:00 -3.4 C 3.63 g/m*3 -3.4 C 0 km/h
471 21-01-2019 15:10:00 -3.4 C 3.63 g/m*3 -3.4 C 0 km/h
472 21-01-2019 15:15:00 -3.3 C 3.65 g/m*3 -3.3 C 0 km/h
473 21-01-2019 15:20:00 -3.3 C 3.65 g/m*3 -3.3 C 0 km/h
474 21-01-2019 15:25:00 -3.3 C 3.65 g/m*3 -3.3 C 0 km/h
475 21-01-2019 15:30:00 -3.2 C 3.68 g/m*3 -3.2 C 0 km/h
Sensor: Nr:Datum:Temp:Abs-Feuchte:Windchill:Wind:
Aussen-T/F 476 21-01-2019 15:35:00 -3.2 C 3.68 g/m*3 -3.2 C 0 km/h
477 21-01-2019 15:40:00 -3.2 C 3.68 g/m*3 -3.2 C 0 km/h
478 21-01-2019 15:45:00 -3.2 C 3.68 g/m*3 -3.2 C 0 km/h
479 21-01-2019 15:50:00 -3.2 C 3.68 g/m*3 -3.2 C 0 km/h
480 21-01-2019 15:55:00 -3.2 C 3.68 g/m*3 -3.2 C 0 km/h
481 21-01-2019 16:00:00 -3.2 C 3.68 g/m*3 -3.2 C 0 km/h
482 21-01-2019 16:05:00 -3.2 C 3.68 g/m*3 -3.2 C 0 km/h
483 21-01-2019 16:10:00 -3.2 C 3.68 g/m*3 -3.2 C 0 km/h
484 21-01-2019 16:15:00 -3.2 C 3.64 g/m*3 -3.2 C 0 km/h
485 21-01-2019 16:20:00 -3.2 C 3.64 g/m*3 -3.2 C 0 km/h
486 21-01-2019 16:25:00 -3.2 C 3.64 g/m*3 -3.2 C 0 km/h
487 21-01-2019 16:30:00 -3.2 C 3.68 g/m*3 -3.2 C 0 km/h
488 21-01-2019 16:35:00 -3.3 C 3.65 g/m*3 -3.3 C 0 km/h
489 21-01-2019 16:40:00 -3.3 C 3.61 g/m*3 -3.3 C 0 km/h
490 21-01-2019 16:45:00 -3.4 C 3.59 g/m*3 -3.4 C 0 km/h
491 21-01-2019 16:50:00 -3.4 C 3.59 g/m*3 -3.4 C 1.6 km/h
492 21-01-2019 16:55:00 -3.4 C 3.59 g/m*3 -3.4 C 3.2 km/h
493 21-01-2019 17:00:00 -3.5 C 3.56 g/m*3 -3.5 C 3.2 km/h
494 21-01-2019 17:05:00 -3.6 C 3.54 g/m*3 -3.6 C 3.2 km/h
495 21-01-2019 17:10:00 -3.7 C 3.51 g/m*3 -3.7 C 3.2 km/h
496 21-01-2019 17:15:00 -3.7 C 3.51 g/m*3 -3.7 C 1.6 km/h
497 21-01-2019 17:20:00 -3.8 C 3.49 g/m*3 -3.8 C 0 km/h
498 21-01-2019 17:25:00 -3.8 C 3.49 g/m*3 -3.8 C 0 km/h
499 21-01-2019 17:30:00 -3.9 C 3.46 g/m*3 -3.9 C 0 km/h
500 21-01-2019 17:35:00 -3.9 C 3.46 g/m*3 -3.9 C 0 km/h
Sensor: Nr:Datum:Temp:Abs-Feuchte:Windchill:Wind:
Aussen-T/F 501 21-01-2019 17:40:00 -3.9 C 3.46 g/m*3 -3.9 C 0 km/h
502 21-01-2019 17:45:00 -4 C 3.44 g/m*3 -4 C 0 km/h
503 21-01-2019 17:50:00 -4.1 C 3.41 g/m*3 -4.1 C 0 km/h
504 21-01-2019 17:55:00 -4.1 C 3.41 g/m*3 -4.1 C 0 km/h
505 21-01-2019 18:00:00 -4.2 C 3.39 g/m*3 -4.2 C 0 km/h
506 21-01-2019 18:05:00 -4.2 C 3.39 g/m*3 -4.2 C 0 km/h
507 21-01-2019 18:10:00 -4.3 C 3.37 g/m*3 -4.3 C 0 km/h
508 21-01-2019 18:15:00 -4.3 C 3.37 g/m*3 -4.3 C 0 km/h
509 21-01-2019 18:20:00 -4.4 C 3.34 g/m*3 -4.4 C 0 km/h
510 21-01-2019 18:25:00 -4.4 C 3.34 g/m*3 -4.4 C 0 km/h
511 21-01-2019 18:30:00 -4.5 C 3.32 g/m*3 -4.5 C 0 km/h
512 21-01-2019 18:35:00 -4.6 C 3.29 g/m*3 -4.6 C 0 km/h
513 21-01-2019 18:40:00 -4.6 C 3.29 g/m*3 -4.6 C 0 km/h
514 21-01-2019 18:45:00 -4.7 C 3.27 g/m*3 -4.7 C 0 km/h
515 21-01-2019 18:50:00 -4.8 C 3.21 g/m*3 -4.8 C 0 km/h
516 21-01-2019 18:55:00 -5 C 3.17 g/m*3 -5 C 0 km/h
517 21-01-2019 19:00:00 -5.2 C 3.12 g/m*3 -5.2 C 0 km/h
518 21-01-2019 19:05:00 -5.3 C 3.1 g/m*3 -5.3 C 0 km/h
519 21-01-2019 19:10:00 -5.4 C 3.08 g/m*3 -5.4 C 0 km/h
520 21-01-2019 19:15:00 -5.5 C 3.05 g/m*3 -5.5 C 0 km/h
521 21-01-2019 19:20:00 -5.4 C 3.11 g/m*3 -5.4 C 0 km/h
522 21-01-2019 19:25:00 -5.4 C 3.11 g/m*3 -5.4 C 0 km/h
523 21-01-2019 19:30:00 -5.3 C 3.13 g/m*3 -5.3 C 0 km/h
524 21-01-2019 19:35:00 -5.3 C 3.13 g/m*3 -5.3 C 0 km/h
525 21-01-2019 19:40:00 -5.4 C 3.11 g/m*3 -5.4 C 0 km/h
Sensor: Nr:Datum:Temp:Abs-Feuchte:Windchill:Wind:
Aussen-T/F 526 21-01-2019 19:45:00 -5.5 C 3.09 g/m*3 -5.5 C 0 km/h
527 21-01-2019 19:50:00 -5.6 C 3.03 g/m*3 -5.6 C 0 km/h
528 21-01-2019 19:55:00 -5.7 C 3.01 g/m*3 -5.7 C 0 km/h
529 21-01-2019 20:00:00 -5.7 C 3.04 g/m*3 -5.7 C 0 km/h
530 21-01-2019 20:05:00 -5.7 C 3.04 g/m*3 -5.7 C 0 km/h
531 21-01-2019 20:10:00 -5.8 C 2.99 g/m*3 -5.8 C 0 km/h
532 21-01-2019 20:15:00 -6 C 2.95 g/m*3 -6 C 0 km/h
533 21-01-2019 20:20:00 -6.1 C 2.92 g/m*3 -6.1 C 0 km/h
534 21-01-2019 20:25:00 -6.1 C 2.92 g/m*3 -6.1 C 0 km/h
535 21-01-2019 20:30:00 -6.2 C 2.9 g/m*3 -6.2 C 0 km/h
536 21-01-2019 20:35:00 -6.2 C 2.9 g/m*3 -6.2 C 0 km/h
537 21-01-2019 20:40:00 -6.2 C 2.9 g/m*3 -6.2 C 0 km/h
538 21-01-2019 20:45:00 -6.2 C 2.9 g/m*3 -6.2 C 0 km/h
539 21-01-2019 20:50:00 -6.2 C 2.9 g/m*3 -6.2 C 0 km/h
540 21-01-2019 20:55:00 -6.2 C 2.93 g/m*3 -6.2 C 0 km/h
541 21-01-2019 21:00:00 -6.2 C 2.93 g/m*3 -6.2 C 0 km/h
542 21-01-2019 21:05:00 -6.2 C 2.93 g/m*3 -6.2 C 0 km/h
543 21-01-2019 21:10:00 -6.3 C 2.91 g/m*3 -6.3 C 0 km/h
544 21-01-2019 21:15:00 -6.3 C 2.91 g/m*3 -6.3 C 0 km/h
545 21-01-2019 21:20:00 -6.3 C 2.91 g/m*3 -6.3 C 0 km/h
546 21-01-2019 21:25:00 -6.3 C 2.91 g/m*3 -6.3 C 0 km/h
547 21-01-2019 21:30:00 -6.4 C 2.89 g/m*3 -6.4 C 0 km/h
548 21-01-2019 21:35:00 -6.5 C 2.84 g/m*3 -6.5 C 0 km/h
549 21-01-2019 21:40:00 -6.6 C 2.82 g/m*3 -6.6 C 0 km/h
550 21-01-2019 21:45:00 -6.6 C 2.82 g/m*3 -6.6 C 0 km/h
Sensor: Nr:Datum:Temp:Abs-Feuchte:Windchill:Wind:
Aussen-T/F 551 21-01-2019 21:50:00 -6.6 C 2.85 g/m*3 -6.6 C 0 km/h
552 21-01-2019 21:55:00 -6.6 C 2.85 g/m*3 -6.6 C 0 km/h
553 21-01-2019 22:00:00 -6.6 C 2.85 g/m*3 -6.6 C 0 km/h
554 21-01-2019 22:05:00 -6.7 C 2.83 g/m*3 -6.7 C 0 km/h
555 21-01-2019 22:10:00 -6.7 C 2.83 g/m*3 -6.7 C 0 km/h
556 21-01-2019 22:15:00 -6.6 C 2.85 g/m*3 -6.6 C 0 km/h
557 21-01-2019 22:20:00 -6.6 C 2.85 g/m*3 -6.6 C 0 km/h
558 21-01-2019 22:25:00 -6.7 C 2.8 g/m*3 -6.7 C 0 km/h
559 21-01-2019 22:30:00 -6.8 C 2.81 g/m*3 -6.8 C 0 km/h
560 21-01-2019 22:35:00 -6.8 C 2.78 g/m*3 -6.8 C 0 km/h
561 21-01-2019 22:40:00 -6.9 C 2.76 g/m*3 -6.9 C 0 km/h
562 21-01-2019 22:45:00 -6.9 C 2.79 g/m*3 -6.9 C 0 km/h
563 21-01-2019 22:50:00 -6.9 C 2.79 g/m*3 -6.9 C 0 km/h
564 21-01-2019 22:55:00 -6.9 C 2.79 g/m*3 -6.9 C 0 km/h
565 21-01-2019 23:00:00 -6.9 C 2.79 g/m*3 -6.9 C 0 km/h
566 21-01-2019 23:05:00 -6.9 C 2.79 g/m*3 -6.9 C 0 km/h
567 21-01-2019 23:10:00 -7.1 C 2.75 g/m*3 -7.1 C 0 km/h
568 21-01-2019 23:15:00 -7.1 C 2.75 g/m*3 -7.1 C 0 km/h
569 21-01-2019 23:20:00 -7.1 C 2.72 g/m*3 -7.1 C 0 km/h
570 21-01-2019 23:25:00 -7.2 C 2.7 g/m*3 -7.2 C 0 km/h
571 21-01-2019 23:30:00 -7.2 C 2.73 g/m*3 -7.2 C 0 km/h
572 21-01-2019 23:35:00 -7.1 C 2.75 g/m*3 -7.1 C 0 km/h
573 21-01-2019 23:40:00 -7.1 C 2.75 g/m*3 -7.1 C 0 km/h
574 21-01-2019 23:45:00 -7.2 C 2.7 g/m*3 -7.2 C 0 km/h
575 21-01-2019 23:50:00 -7.2 C 2.73 g/m*3 -7.2 C 0 km/h
Sensor: Nr:Datum:Temp:Abs-Feuchte:Windchill:Wind:
Aussen-T/F 576 21-01-2019 23:55:00 -7.2 C 2.73 g/m*3 -7.2 C 0 km/h
577 22-01-2019 00:00:00 -7.3 C 2.68 g/m*3 -7.3 C 0 km/h
578 22-01-2019 00:05:00 -7.3 C 2.71 g/m*3 -7.3 C 0 km/h
579 22-01-2019 00:10:00 -7.3 C 2.71 g/m*3 -7.3 C 0 km/h
580 22-01-2019 00:15:00 -7.3 C 2.71 g/m*3 -7.3 C 0 km/h
581 22-01-2019 00:20:00 -7.4 C 2.66 g/m*3 -7.4 C 0 km/h
582 22-01-2019 00:25:00 -7.5 C 2.64 g/m*3 -7.5 C 0 km/h
583 22-01-2019 00:30:00 -7.6 C 2.62 g/m*3 -7.6 C 0 km/h
584 22-01-2019 00:35:00 -7.6 C 2.62 g/m*3 -7.6 C 0 km/h
585 22-01-2019 00:40:00 -7.7 C 2.6 g/m*3 -7.7 C 0 km/h
586 22-01-2019 00:45:00 -7.7 C 2.6 g/m*3 -7.7 C 0 km/h
587 22-01-2019 00:50:00 -7.7 C 2.6 g/m*3 -7.7 C 0 km/h
588 22-01-2019 00:55:00 -7.7 C 2.6 g/m*3 -7.7 C 0 km/h
589 22-01-2019 01:00:00 -7.8 C 2.58 g/m*3 -7.8 C 0 km/h
590 22-01-2019 01:05:00 -7.8 C 2.58 g/m*3 -7.8 C 0 km/h
591 22-01-2019 01:10:00 -7.8 C 2.58 g/m*3 -7.8 C 0 km/h
592 22-01-2019 01:15:00 -7.8 C 2.58 g/m*3 -7.8 C 0 km/h
593 22-01-2019 01:20:00 -7.8 C 2.58 g/m*3 -7.8 C 0 km/h
594 22-01-2019 01:25:00 -7.8 C 2.58 g/m*3 -7.8 C 0 km/h
595 22-01-2019 01:30:00 -7.7 C 2.63 g/m*3 -7.7 C 0 km/h
596 22-01-2019 01:35:00 -7.7 C 2.63 g/m*3 -7.7 C 0 km/h
597 22-01-2019 01:40:00 -7.8 C 2.58 g/m*3 -7.8 C 0 km/h
598 22-01-2019 01:45:00 -7.9 C 2.56 g/m*3 -7.9 C 0 km/h
599 22-01-2019 01:50:00 -7.9 C 2.56 g/m*3 -7.9 C 0 km/h
600 22-01-2019 01:55:00 -7.9 C 2.56 g/m*3 -7.9 C 0 km/h
Sensor: Nr:Datum:Temp:Abs-Feuchte:Windchill:Wind:
Aussen-T/F 601 22-01-2019 02:00:00 -8 C 2.54 g/m*3 -8 C 0 km/h
602 22-01-2019 02:05:00 -8.1 C 2.52 g/m*3 -8.1 C 0 km/h
603 22-01-2019 02:10:00 -8.1 C 2.52 g/m*3 -8.1 C 0 km/h
604 22-01-2019 02:15:00 -8.1 C 2.52 g/m*3 -8.1 C 0 km/h
605 22-01-2019 02:20:00 -8.2 C 2.51 g/m*3 -8.2 C 0 km/h
606 22-01-2019 02:25:00 -8 C 2.54 g/m*3 -8 C 0 km/h
607 22-01-2019 02:30:00 -7.9 C 2.56 g/m*3 -7.9 C 0 km/h
608 22-01-2019 02:35:00 -8 C 2.54 g/m*3 -8 C 0 km/h
609 22-01-2019 02:40:00 -8.1 C 2.52 g/m*3 -8.1 C 0 km/h
610 22-01-2019 02:45:00 -8.1 C 2.52 g/m*3 -8.1 C 0 km/h
611 22-01-2019 02:50:00 -8.1 C 2.52 g/m*3 -8.1 C 0 km/h
612 22-01-2019 02:55:00 -8.2 C 2.51 g/m*3 -8.2 C 0 km/h
613 22-01-2019 03:00:00 -8.2 C 2.51 g/m*3 -8.2 C 0 km/h
614 22-01-2019 03:05:00 -8.2 C 2.51 g/m*3 -8.2 C 0 km/h
615 22-01-2019 03:10:00 -8.2 C 2.51 g/m*3 -8.2 C 0 km/h
616 22-01-2019 03:15:00 -8.2 C 2.51 g/m*3 -8.2 C 0 km/h
617 22-01-2019 03:20:00 -8.2 C 2.51 g/m*3 -8.2 C 0 km/h
618 22-01-2019 03:25:00 -8.2 C 2.51 g/m*3 -8.2 C 0 km/h
619 22-01-2019 03:30:00 -8.2 C 2.51 g/m*3 -8.2 C 0 km/h
620 22-01-2019 03:35:00 -8.3 C 2.49 g/m*3 -8.3 C 0 km/h
621 22-01-2019 03:40:00 -8.3 C 2.49 g/m*3 -8.3 C 0 km/h
622 22-01-2019 03:45:00 -8.4 C 2.47 g/m*3 -8.4 C 0 km/h
623 22-01-2019 03:50:00 -8.4 C 2.47 g/m*3 -8.4 C 0 km/h
624 22-01-2019 03:55:00 -8.5 C 2.45 g/m*3 -8.5 C 0 km/h
625 22-01-2019 04:00:00 -8.5 C 2.45 g/m*3 -8.5 C 0 km/h
Sensor: Nr:Datum:Temp:Abs-Feuchte:Windchill:Wind:
Aussen-T/F 626 22-01-2019 04:05:00 -8.4 C 2.47 g/m*3 -8.4 C 0 km/h
627 22-01-2019 04:10:00 -8.4 C 2.47 g/m*3 -8.4 C 0 km/h
628 22-01-2019 04:15:00 -8.4 C 2.47 g/m*3 -8.4 C 0 km/h
629 22-01-2019 04:20:00 -8.5 C 2.45 g/m*3 -8.5 C 0 km/h
630 22-01-2019 04:25:00 -8.6 C 2.43 g/m*3 -8.6 C 0 km/h
631 22-01-2019 04:30:00 -8.6 C 2.43 g/m*3 -8.6 C 0 km/h
632 22-01-2019 04:35:00 -8.7 C 2.41 g/m*3 -8.7 C 0 km/h
633 22-01-2019 04:40:00 -8.7 C 2.41 g/m*3 -8.7 C 0 km/h
634 22-01-2019 04:45:00 -8.7 C 2.41 g/m*3 -8.7 C 0 km/h
635 22-01-2019 04:50:00 -8.7 C 2.41 g/m*3 -8.7 C 0 km/h
636 22-01-2019 04:55:00 -8.7 C 2.41 g/m*3 -8.7 C 0 km/h
637 22-01-2019 05:00:00 -8.6 C 2.43 g/m*3 -8.6 C 0 km/h
638 22-01-2019 05:05:00 -8.6 C 2.43 g/m*3 -8.6 C 0 km/h
639 22-01-2019 05:10:00 -8.5 C 2.45 g/m*3 -8.5 C 0 km/h
640 22-01-2019 05:15:00 -8.4 C 2.5 g/m*3 -8.4 C 0 km/h
641 22-01-2019 05:20:00 -8.3 C 2.49 g/m*3 -8.3 C 0 km/h
642 22-01-2019 05:25:00 -8.3 C 2.49 g/m*3 -8.3 C 0 km/h
643 22-01-2019 05:30:00 -8.4 C 2.47 g/m*3 -8.4 C 0 km/h
644 22-01-2019 05:35:00 -8.4 C 2.47 g/m*3 -8.4 C 0 km/h
645 22-01-2019 05:40:00 -8.6 C 2.43 g/m*3 -8.6 C 0 km/h
646 22-01-2019 05:45:00 -8.7 C 2.41 g/m*3 -8.7 C 0 km/h
647 22-01-2019 05:50:00 -8.7 C 2.41 g/m*3 -8.7 C 0 km/h
648 22-01-2019 05:55:00 -8.7 C 2.41 g/m*3 -8.7 C 0 km/h
649 22-01-2019 06:00:00 -8.7 C 2.41 g/m*3 -8.7 C 0 km/h
650 22-01-2019 06:05:00 -8.7 C 2.41 g/m*3 -8.7 C 0 km/h
Sensor: Nr:Datum:Temp:Abs-Feuchte:Windchill:Wind:
Aussen-T/F 651 22-01-2019 06:10:00 -8.7 C 2.41 g/m*3 -8.7 C 0 km/h
652 22-01-2019 06:15:00 -8.7 C 2.41 g/m*3 -8.7 C 0 km/h
653 22-01-2019 06:20:00 -8.7 C 2.41 g/m*3 -8.7 C 0 km/h
654 22-01-2019 06:25:00 -8.7 C 2.41 g/m*3 -8.7 C 0 km/h
655 22-01-2019 06:30:00 -8.7 C 2.41 g/m*3 -8.7 C 0 km/h
656 22-01-2019 06:35:00 -8.8 C 2.4 g/m*3 -8.8 C 0 km/h
657 22-01-2019 06:40:00 -8.8 C 2.4 g/m*3 -8.8 C 0 km/h
658 22-01-2019 06:45:00 -8.8 C 2.4 g/m*3 -8.8 C 0 km/h
659 22-01-2019 06:50:00 -8.8 C 2.4 g/m*3 -8.8 C 0 km/h
660 22-01-2019 06:55:00 -8.8 C 2.4 g/m*3 -8.8 C 0 km/h
661 22-01-2019 07:00:00 -8.7 C 2.41 g/m*3 -8.7 C 0 km/h
662 22-01-2019 07:05:00 -8.7 C 2.41 g/m*3 -8.7 C 0 km/h
663 22-01-2019 07:10:00 -8.6 C 2.43 g/m*3 -8.6 C 0 km/h
664 22-01-2019 07:15:00 -8.7 C 2.41 g/m*3 -8.7 C 0 km/h
665 22-01-2019 07:20:00 -8.7 C 2.41 g/m*3 -8.7 C 0 km/h
666 22-01-2019 07:25:00 -8.7 C 2.41 g/m*3 -8.7 C 0 km/h
667 22-01-2019 07:30:00 -8.7 C 2.41 g/m*3 -8.7 C 0 km/h
668 22-01-2019 07:35:00 -8.7 C 2.41 g/m*3 -8.7 C 0 km/h
669 22-01-2019 07:40:00 -8.7 C 2.41 g/m*3 -8.7 C 0 km/h
670 22-01-2019 07:45:00 -8.6 C 2.43 g/m*3 -8.6 C 0 km/h
671 22-01-2019 07:50:00 -8.5 C 2.45 g/m*3 -8.5 C 0 km/h
672 22-01-2019 07:55:00 -8.5 C 2.45 g/m*3 -8.5 C 0 km/h
673 22-01-2019 08:00:00 -8.6 C 2.43 g/m*3 -8.6 C 0 km/h
674 22-01-2019 08:05:00 -8.6 C 2.43 g/m*3 -8.6 C 0 km/h
675 22-01-2019 08:10:00 -8.6 C 2.43 g/m*3 -8.6 C 0 km/h
Sensor: Nr:Datum:Temp:Abs-Feuchte:Windchill:Wind:
Aussen-T/F 676 22-01-2019 08:15:00 -8.6 C 2.43 g/m*3 -8.6 C 0 km/h
677 22-01-2019 08:20:00 -8.3 C 2.51 g/m*3 -8.3 C 0 km/h
678 22-01-2019 08:25:00 -8.1 C 2.55 g/m*3 -8.1 C 0 km/h
679 22-01-2019 08:30:00 -8.1 C 2.55 g/m*3 -8.1 C 0 km/h
680 22-01-2019 08:35:00 -8 C 2.57 g/m*3 -8 C 0 km/h
681 22-01-2019 08:40:00 -7.9 C 2.59 g/m*3 -7.9 C 0 km/h
682 22-01-2019 08:45:00 -7.9 C 2.56 g/m*3 -7.9 C 0 km/h
683 22-01-2019 08:50:00 -7.9 C 2.56 g/m*3 -7.9 C 0 km/h
684 22-01-2019 08:55:00 -7.8 C 2.61 g/m*3 -7.8 C 0 km/h
685 22-01-2019 09:00:00 -7.8 C 2.61 g/m*3 -7.8 C 0 km/h
686 22-01-2019 09:05:00 -7.7 C 2.63 g/m*3 -7.7 C 0 km/h
687 22-01-2019 09:10:00 -7.6 C 2.65 g/m*3 -7.6 C 0 km/h
688 22-01-2019 09:15:00 -7.5 C 2.67 g/m*3 -7.5 C 0 km/h
689 22-01-2019 09:20:00 -7.4 C 2.69 g/m*3 -7.4 C 0 km/h
690 22-01-2019 09:25:00 -7.3 C 2.71 g/m*3 -7.3 C 0 km/h
691 22-01-2019 09:30:00 -7.3 C 2.71 g/m*3 -7.3 C 0 km/h
692 22-01-2019 09:35:00 -7.2 C 2.73 g/m*3 -7.2 C 0 km/h
693 22-01-2019 09:40:00 -7.2 C 2.73 g/m*3 -7.2 C 0 km/h
694 22-01-2019 09:45:00 -7.1 C 2.75 g/m*3 -7.1 C 0 km/h
695 22-01-2019 09:50:00 -7 C 2.77 g/m*3 -7 C 0 km/h
696 22-01-2019 09:55:00 -6.9 C 2.79 g/m*3 -6.9 C 0 km/h
697 22-01-2019 10:00:00 -6.8 C 2.81 g/m*3 -6.8 C 0 km/h
698 22-01-2019 10:05:00 -6.8 C 2.81 g/m*3 -6.8 C 0 km/h
699 22-01-2019 10:10:00 -6.7 C 2.83 g/m*3 -6.7 C 0 km/h
700 22-01-2019 10:15:00 -6.6 C 2.85 g/m*3 -6.6 C 0 km/h
Sensor: Nr:Datum:Temp:Abs-Feuchte:Windchill:Wind:
Aussen-T/F 701 22-01-2019 10:20:00 -6.5 C 2.87 g/m*3 -6.5 C 0 km/h
702 22-01-2019 10:25:00 -6.4 C 2.89 g/m*3 -6.4 C 0 km/h
703 22-01-2019 10:30:00 -6.3 C 2.91 g/m*3 -6.3 C 0 km/h
704 22-01-2019 10:35:00 -6.2 C 2.93 g/m*3 -6.2 C 0 km/h
705 22-01-2019 10:40:00 -6.1 C 2.96 g/m*3 -6.1 C 0 km/h
706 22-01-2019 10:45:00 -5.9 C 3.03 g/m*3 -5.9 C 0 km/h
707 22-01-2019 10:50:00 -5.8 C 3.05 g/m*3 -5.8 C 0 km/h
708 22-01-2019 10:55:00 -5.7 C 3.07 g/m*3 -5.7 C 0 km/h
709 22-01-2019 11:00:00 -5.6 C 3.1 g/m*3 -5.6 C 0 km/h
710 22-01-2019 11:05:00 -5.5 C 3.12 g/m*3 -5.5 C 0 km/h
711 22-01-2019 11:10:00 -5.4 C 3.14 g/m*3 -5.4 C 0 km/h
712 22-01-2019 11:15:00 -5.3 C 3.17 g/m*3 -5.3 C 0 km/h
713 22-01-2019 11:20:00 -5.2 C 3.19 g/m*3 -5.2 C 0 km/h
714 22-01-2019 11:25:00 -5.1 C 3.21 g/m*3 -5.1 C 0 km/h
715 22-01-2019 11:30:00 -4.9 C 3.26 g/m*3 -4.9 C 0 km/h
716 22-01-2019 11:35:00 -4.8 C 3.28 g/m*3 -4.8 C 0 km/h
717 22-01-2019 11:40:00 -4.7 C 3.31 g/m*3 -4.7 C 0 km/h
718 22-01-2019 11:45:00 -4.6 C 3.33 g/m*3 -4.6 C 0 km/h
719 22-01-2019 11:50:00 -4.5 C 3.35 g/m*3 -4.5 C 0 km/h
720 22-01-2019 11:55:00 -4.3 C 3.4 g/m*3 -4.3 C 0 km/h
721 22-01-2019 12:00:00 -4.2 C 3.43 g/m*3 -4.2 C 0 km/h
722 22-01-2019 12:05:00 -4.1 C 3.45 g/m*3 -4.1 C 0 km/h
723 22-01-2019 12:10:00 -3.8 C 3.53 g/m*3 -3.8 C 0 km/h
724 22-01-2019 12:15:00 -3.6 C 3.58 g/m*3 -3.6 C 0 km/h
725 22-01-2019 12:20:00 -3.4 C 3.63 g/m*3 -3.4 C 0 km/h
Sensor: Nr:Datum:Temp:Abs-Feuchte:Windchill:Wind:
Aussen-T/F 726 22-01-2019 12:25:00 -3.3 C 3.65 g/m*3 -3.3 C 0 km/h
727 22-01-2019 12:30:00 -3.1 C 3.71 g/m*3 -3.1 C 0 km/h
728 22-01-2019 12:35:00 -2.9 C 3.76 g/m*3 -2.9 C 0 km/h
729 22-01-2019 12:40:00 -2.7 C 3.81 g/m*3 -2.7 C 0 km/h
730 22-01-2019 12:45:00 -2.5 C 3.87 g/m*3 -2.5 C 0 km/h
731 22-01-2019 12:50:00 -2.3 C 3.92 g/m*3 -2.3 C 0 km/h
732 22-01-2019 12:55:00 -2.2 C 3.95 g/m*3 -4.72 C 6.4 km/h
733 22-01-2019 13:00:00 -2 C 3.96 g/m*3 -4.49 C 6.4 km/h
734 22-01-2019 13:05:00 -1.8 C 4.02 g/m*3 -1.8 C 1.6 km/h
735 22-01-2019 13:10:00 -1.7 C 4 g/m*3 -1.7 C 1.6 km/h
736 22-01-2019 13:15:00 -1.7 C 4 g/m*3 -1.7 C 3.2 km/h
737 22-01-2019 13:20:00 -1.6 C 3.99 g/m*3 -1.6 C 4.8 km/h
738 22-01-2019 13:25:00 -1.4 C 4.04 g/m*3 -3.8 C 6.4 km/h
739 22-01-2019 13:30:00 -1.3 C 4.03 g/m*3 -1.3 C 4.8 km/h
740 22-01-2019 13:35:00 -1.3 C 4.07 g/m*3 -1.3 C 0 km/h
741 22-01-2019 13:40:00 -1.2 C 4.06 g/m*3 -1.2 C 3.2 km/h
742 22-01-2019 13:45:00 -1.2 C 4.06 g/m*3 -1.2 C 3.2 km/h
743 22-01-2019 13:50:00 -1.2 C 4.01 g/m*3 -1.2 C 4.8 km/h
744 22-01-2019 13:55:00 -1.1 C 4.04 g/m*3 -1.1 C 4.8 km/h
745 22-01-2019 14:00:00 -1.1 C 4 g/m*3 -1.1 C 4.8 km/h
746 22-01-2019 14:05:00 -1.1 C 4 g/m*3 -1.1 C 1.6 km/h
747 22-01-2019 14:10:00 -0.9 C 4.05 g/m*3 -3.22 C 6.4 km/h
748 22-01-2019 14:15:00 -0.9 C 4.05 g/m*3 -0.9 C 4.8 km/h
749 22-01-2019 14:20:00 -0.9 C 4.05 g/m*3 -0.9 C 4.8 km/h
750 22-01-2019 14:25:00 -0.9 C 4.05 g/m*3 -0.9 C 4.8 km/h
Sensor: Nr:Datum:Temp:Abs-Feuchte:Windchill:Wind:
Aussen-T/F 751 22-01-2019 14:30:00 -0.9 C 4.01 g/m*3 -0.9 C 4.8 km/h
752 22-01-2019 14:35:00 -0.8 C 4.08 g/m*3 -0.8 C 4.8 km/h
753 22-01-2019 14:40:00 -0.8 C 4.03 g/m*3 -0.8 C 3.2 km/h
754 22-01-2019 14:45:00 -0.8 C 4.03 g/m*3 -0.8 C 3.2 km/h
755 22-01-2019 14:50:00 -0.8 C 4.03 g/m*3 -0.8 C 4.8 km/h
756 22-01-2019 14:55:00 -0.8 C 3.99 g/m*3 -3.11 C 6.4 km/h
757 22-01-2019 15:00:00 -0.8 C 4.03 g/m*3 -0.8 C 4.8 km/h
758 22-01-2019 15:05:00 -0.9 C 3.96 g/m*3 -3.22 C 6.4 km/h
759 22-01-2019 15:10:00 -0.9 C 3.96 g/m*3 -0.9 C 3.2 km/h
760 22-01-2019 15:15:00 -1 C 3.93 g/m*3 -1 C 1.6 km/h
761 22-01-2019 15:20:00 -0.9 C 4.01 g/m*3 -0.9 C 3.2 km/h
762 22-01-2019 15:25:00 -1 C 3.98 g/m*3 -1 C 1.6 km/h
763 22-01-2019 15:30:00 -1 C 3.98 g/m*3 -1 C 3.2 km/h
764 22-01-2019 15:35:00 -1 C 3.98 g/m*3 -1 C 1.6 km/h
765 22-01-2019 15:40:00 -1.1 C 3.91 g/m*3 -1.1 C 4.8 km/h
766 22-01-2019 15:45:00 -1.1 C 3.91 g/m*3 -1.1 C 4.8 km/h
767 22-01-2019 15:50:00 -1.1 C 3.95 g/m*3 -3.45 C 6.4 km/h
768 22-01-2019 15:55:00 -1.1 C 3.95 g/m*3 -1.1 C 1.6 km/h
769 22-01-2019 16:00:00 -1.1 C 3.91 g/m*3 -1.1 C 1.6 km/h
770 22-01-2019 16:05:00 -1.1 C 3.95 g/m*3 -1.1 C 0 km/h
771 22-01-2019 16:10:00 -1.1 C 3.91 g/m*3 -1.1 C 3.2 km/h
772 22-01-2019 16:15:00 -1.2 C 3.88 g/m*3 -1.2 C 4.8 km/h
773 22-01-2019 16:20:00 -1.2 C 3.88 g/m*3 -1.2 C 3.2 km/h
774 22-01-2019 16:25:00 -1.2 C 3.88 g/m*3 -1.2 C 1.6 km/h
775 22-01-2019 16:30:00 -1.2 C 3.88 g/m*3 -1.2 C 4.8 km/h
Sensor: Nr:Datum:Temp:Abs-Feuchte:Windchill:Wind:
Aussen-T/F 776 22-01-2019 16:35:00 -1.3 C 3.85 g/m*3 -3.68 C 6.4 km/h
777 22-01-2019 16:40:00 -1.3 C 3.85 g/m*3 -1.3 C 4.8 km/h
778 22-01-2019 16:45:00 -1.3 C 3.85 g/m*3 -1.3 C 0 km/h
779 22-01-2019 16:50:00 -1.3 C 3.85 g/m*3 -1.3 C 3.2 km/h
780 22-01-2019 16:55:00 -1.4 C 3.82 g/m*3 -1.4 C 1.6 km/h
781 22-01-2019 17:00:00 -1.5 C 3.84 g/m*3 -1.5 C 0 km/h
782 22-01-2019 17:05:00 -1.6 C 3.77 g/m*3 -1.6 C 0 km/h
783 22-01-2019 17:10:00 -1.8 C 3.72 g/m*3 -1.8 C 0 km/h
784 22-01-2019 17:15:00 -1.9 C 3.69 g/m*3 -1.9 C 0 km/h
785 22-01-2019 17:20:00 -2.1 C 3.68 g/m*3 -2.1 C 0 km/h
786 22-01-2019 17:25:00 -2.2 C 3.66 g/m*3 -2.2 C 0 km/h
787 22-01-2019 17:30:00 -2.3 C 3.63 g/m*3 -2.3 C 1.6 km/h
788 22-01-2019 17:35:00 -2.4 C 3.65 g/m*3 -2.4 C 1.6 km/h
789 22-01-2019 17:40:00 -2.6 C 3.6 g/m*3 -2.6 C 0 km/h
790 22-01-2019 17:45:00 -2.7 C 3.57 g/m*3 -2.7 C 0 km/h
791 22-01-2019 17:50:00 -2.8 C 3.55 g/m*3 -2.8 C 0 km/h
792 22-01-2019 17:55:00 -2.8 C 3.55 g/m*3 -2.8 C 1.6 km/h
793 22-01-2019 18:00:00 -2.9 C 3.56 g/m*3 -2.9 C 0 km/h
794 22-01-2019 18:05:00 -2.9 C 3.56 g/m*3 -2.9 C 0 km/h
795 22-01-2019 18:10:00 -2.9 C 3.56 g/m*3 -2.9 C 0 km/h
796 22-01-2019 18:15:00 -2.9 C 3.56 g/m*3 -2.9 C 0 km/h
797 22-01-2019 18:20:00 -2.9 C 3.6 g/m*3 -2.9 C 0 km/h
798 22-01-2019 18:25:00 -2.9 C 3.6 g/m*3 -2.9 C 0 km/h
799 22-01-2019 18:30:00 -2.9 C 3.6 g/m*3 -2.9 C 0 km/h
800 22-01-2019 18:35:00 -2.9 C 3.6 g/m*3 -2.9 C 0 km/h
Sensor: Nr:Datum:Temp:Abs-Feuchte:Windchill:Wind:
Aussen-T/F 801 22-01-2019 18:40:00 -2.8 C 3.63 g/m*3 -2.8 C 0 km/h
802 22-01-2019 18:45:00 -2.8 C 3.63 g/m*3 -2.8 C 0 km/h
803 22-01-2019 18:50:00 -2.8 C 3.63 g/m*3 -2.8 C 0 km/h
804 22-01-2019 18:55:00 -2.8 C 3.63 g/m*3 -2.8 C 0 km/h
805 22-01-2019 19:00:00 -2.8 C 3.63 g/m*3 -2.8 C 0 km/h
806 22-01-2019 19:05:00 -2.9 C 3.6 g/m*3 -2.9 C 0 km/h
807 22-01-2019 19:10:00 -2.9 C 3.6 g/m*3 -2.9 C 0 km/h
808 22-01-2019 19:15:00 -3 C 3.57 g/m*3 -3 C 0 km/h
809 22-01-2019 19:20:00 -3.1 C 3.55 g/m*3 -3.1 C 0 km/h
810 22-01-2019 19:25:00 -3.1 C 3.55 g/m*3 -3.1 C 1.6 km/h
811 22-01-2019 19:30:00 -3.2 C 3.52 g/m*3 -3.2 C 0 km/h
812 22-01-2019 19:35:00 -3.2 C 3.52 g/m*3 -3.2 C 1.6 km/h
813 22-01-2019 19:40:00 -3.2 C 3.52 g/m*3 -3.2 C 1.6 km/h
814 22-01-2019 19:45:00 -3.3 C 3.5 g/m*3 -3.3 C 0 km/h
815 22-01-2019 19:50:00 -3.3 C 3.5 g/m*3 -3.3 C 0 km/h
816 22-01-2019 19:55:00 -3.3 C 3.5 g/m*3 -3.3 C 0 km/h
817 22-01-2019 20:00:00 -3.3 C 3.54 g/m*3 -3.3 C 0 km/h
818 22-01-2019 20:05:00 -3.2 C 3.56 g/m*3 -3.2 C 0 km/h
819 22-01-2019 20:10:00 -3.2 C 3.56 g/m*3 -3.2 C 0 km/h
820 22-01-2019 20:15:00 -3.2 C 3.56 g/m*3 -3.2 C 0 km/h
821 22-01-2019 20:20:00 -3.2 C 3.56 g/m*3 -3.2 C 0 km/h
822 22-01-2019 20:25:00 -3.1 C 3.59 g/m*3 -3.1 C 0 km/h
823 22-01-2019 20:30:00 -3.1 C 3.59 g/m*3 -3.1 C 0 km/h
824 22-01-2019 20:35:00 -3.1 C 3.59 g/m*3 -3.1 C 0 km/h
825 22-01-2019 20:40:00 -3.1 C 3.59 g/m*3 -3.1 C 0 km/h
Sensor: Nr:Datum:Temp:Abs-Feuchte:Windchill:Wind:
Aussen-T/F 826 22-01-2019 20:45:00 -3.1 C 3.59 g/m*3 -3.1 C 1.6 km/h
827 22-01-2019 20:50:00 -3 C 3.65 g/m*3 -3 C 1.6 km/h
828 22-01-2019 20:55:00 -2.9 C 3.68 g/m*3 -2.9 C 1.6 km/h
829 22-01-2019 21:00:00 -2.9 C 3.64 g/m*3 -2.9 C 0 km/h
830 22-01-2019 21:05:00 -2.8 C 3.67 g/m*3 -2.8 C 0 km/h
831 22-01-2019 21:10:00 -2.8 C 3.67 g/m*3 -2.8 C 0 km/h
832 22-01-2019 21:15:00 -2.8 C 3.67 g/m*3 -2.8 C 0 km/h
833 22-01-2019 21:20:00 -2.7 C 3.69 g/m*3 -2.7 C 0 km/h
834 22-01-2019 21:25:00 -2.7 C 3.73 g/m*3 -2.7 C 0 km/h
835 22-01-2019 21:30:00 -2.7 C 3.73 g/m*3 -2.7 C 0 km/h
836 22-01-2019 21:35:00 -2.7 C 3.73 g/m*3 -2.7 C 0 km/h
837 22-01-2019 21:40:00 -2.6 C 3.76 g/m*3 -2.6 C 0 km/h
838 22-01-2019 21:45:00 -2.6 C 3.76 g/m*3 -2.6 C 0 km/h
839 22-01-2019 21:50:00 -2.5 C 3.78 g/m*3 -2.5 C 0 km/h
840 22-01-2019 21:55:00 -2.5 C 3.78 g/m*3 -2.5 C 0 km/h
841 22-01-2019 22:00:00 -2.4 C 3.81 g/m*3 -2.4 C 0 km/h
842 22-01-2019 22:05:00 -2.4 C 3.81 g/m*3 -2.4 C 0 km/h
843 22-01-2019 22:10:00 -2.4 C 3.81 g/m*3 -2.4 C 0 km/h
844 22-01-2019 22:15:00 -2.4 C 3.81 g/m*3 -2.4 C 0 km/h
845 22-01-2019 22:20:00 -2.4 C 3.81 g/m*3 -2.4 C 0 km/h
846 22-01-2019 22:25:00 -2.4 C 3.77 g/m*3 -2.4 C 0 km/h
847 22-01-2019 22:30:00 -2.4 C 3.77 g/m*3 -2.4 C 0 km/h
848 22-01-2019 22:35:00 -2.4 C 3.77 g/m*3 -2.4 C 0 km/h
849 22-01-2019 22:40:00 -2.4 C 3.77 g/m*3 -2.4 C 0 km/h
850 22-01-2019 22:45:00 -2.3 C 3.84 g/m*3 -2.3 C 0 km/h
Sensor: Nr:Datum:Temp:Abs-Feuchte:Windchill:Wind:
Aussen-T/F 851 22-01-2019 22:50:00 -2.3 C 3.8 g/m*3 -2.3 C 1.6 km/h
852 22-01-2019 22:55:00 -2.3 C 3.8 g/m*3 -2.3 C 0 km/h
853 22-01-2019 23:00:00 -2.2 C 3.82 g/m*3 -2.2 C 0 km/h
854 22-01-2019 23:05:00 -2.2 C 3.82 g/m*3 -2.2 C 0 km/h
855 22-01-2019 23:10:00 -2.2 C 3.82 g/m*3 -2.2 C 0 km/h
856 22-01-2019 23:15:00 -2.2 C 3.82 g/m*3 -2.2 C 1.6 km/h
857 22-01-2019 23:20:00 -2.2 C 3.82 g/m*3 -2.2 C 0 km/h
858 22-01-2019 23:25:00 -2.1 C 3.85 g/m*3 -2.1 C 0 km/h
859 22-01-2019 23:30:00 -2.1 C 3.85 g/m*3 -2.1 C 1.6 km/h
860 22-01-2019 23:35:00 -2.1 C 3.85 g/m*3 -2.1 C 3.2 km/h
861 22-01-2019 23:40:00 -2 C 3.88 g/m*3 -2 C 0 km/h
862 22-01-2019 23:45:00 -1.9 C 3.91 g/m*3 -5 C 8.1 km/h
863 22-01-2019 23:50:00 -1.9 C 3.86 g/m*3 -5 C 8.1 km/h
864 22-01-2019 23:55:00 -1.8 C 3.89 g/m*3 -1.8 C 3.2 km/h

Legende:
   Min
   Max


Maximal/Minimal-Werte vom 20.01.2019 - 22.01.2019

Sensor Min Max Avg
Temp
(Aussen-T/F)
-8.8 °C
22-01-2019  06:35:00
-0.8 °C
22-01-2019  14:35:00
-5.38 °C
Abs-Feuchte
(Aussen-T/F)
2.4 g/m*3
22-01-2019  06:35:00
4.08 g/m*3
22-01-2019  14:35:00
3.11 g/m*3
Windchill
(Aussen-T/F)
-8.8 C
22-01-2019  06:35:00
-0.8 C
22-01-2019  14:35:00
-5.41 C

Die Daten stammen von einer Davis Vantage Pro 2 Wetter-Station und werden unter Linux mit der Software wview2wettercgi und aufbereitet. Alle Angaben erfolgen ohne Gewähr für ihre Vollständigkeit oder Richtigkeit.
Kontakt: Rainer Krienke krienke@uni-koblenz.de . Meine Webseiten an der Uni Koblenz oder privat.
Version: $Revision: 0.78 $